Time;durP1;ratioP1;P1;durP2;ratioP2;P2;SDS_P1;SDS_P2;PMS_P1;PMS_P2;Temp;Humidity;BMP_temperature;BMP_pressure;BME280_temperature;BME280_humidity;BME280_pressure;Samples;Min_cycle;Max_cycle;Signal;HPM_P1;HPM_P2
2022/03/07 00:01:45;;;;;;;1.70;1.70;;;;;;;1.95;48.91;100919.58;104280;1279;99710;-77
2022/03/07 00:04:16;;;;;;;1.50;1.50;;;;;;;1.99;48.87;100920.70;104881;1279;139921;-78
2022/03/07 00:06:45;;;;;;;1.60;1.60;;;;;;;2.07;48.89;100918.73;104944;1279;95229;-77
2022/03/07 00:09:14;;;;;;;1.50;1.50;;;;;;;2.10;48.52;100914.39;103904;1279;139158;-77
2022/03/07 00:11:42;;;;;;;1.50;1.50;;;;;;;2.01;48.41;100915.13;104046;1281;111121;-77
2022/03/07 00:14:10;;;;;;;1.40;1.40;;;;;;;2.01;48.95;100916.00;104152;1280;99784;-77
2022/03/07 00:16:38;;;;;;;1.50;1.50;;;;;;;2.05;48.65;100911.52;104132;1279;139652;-77
2022/03/07 00:19:06;;;;;;;1.40;1.40;;;;;;;2.12;48.78;100907.08;104145;1281;95654;-80
2022/03/07 00:21:36;;;;;;;1.50;1.50;;;;;;;2.09;48.76;100910.02;104218;1280;139750;-78
2022/03/07 00:24:05;;;;;;;1.50;1.50;;;;;;;2.04;48.58;100906.41;104258;1279;110201;-77
2022/03/07 00:26:34;;;;;;;1.50;1.50;;;;;;;2.05;48.57;100909.23;104220;1280;126776;-77
2022/03/07 00:29:04;;;;;;;1.60;1.60;;;;;;;2.10;48.50;100915.80;104084;1279;138449;-77
2022/03/07 00:31:32;;;;;;;1.50;1.50;;;;;;;2.14;48.79;100917.80;103985;1282;95960;-77
2022/03/07 00:34:00;;;;;;;1.60;1.60;;;;;;;2.15;48.75;100918.50;104153;1279;139253;-77
2022/03/07 00:36:28;;;;;;;1.50;1.50;;;;;;;2.13;48.68;100920.58;104016;1281;109927;-77
2022/03/07 00:38:55;;;;;;;1.50;1.50;;;;;;;2.04;48.65;100926.23;104231;1279;100110;-77
2022/03/07 00:41:23;;;;;;;1.70;1.70;;;;;;;2.02;48.39;100924.76;104128;1279;140107;-77
2022/03/07 00:43:51;;;;;;;1.50;1.50;;;;;;;2.09;48.61;100921.92;104213;1281;95224;-77
2022/03/07 00:46:19;;;;;;;1.60;1.60;;;;;;;2.11;49.06;100919.33;104177;1279;140023;-77
2022/03/07 00:48:47;;;;;;;1.70;1.70;;;;;;;2.14;49.21;100920.25;104247;1279;108701;-77
2022/03/07 00:51:15;;;;;;;1.50;1.50;;;;;;;2.13;49.10;100913.73;104149;1279;140709;-77
2022/03/07 00:53:43;;;;;;;1.60;1.60;;;;;;;2.11;48.85;100911.98;104107;1280;107776;-77
2022/03/07 00:56:11;;;;;;;1.60;1.60;;;;;;;2.13;48.51;100910.42;104195;1280;95171;-77
2022/03/07 00:58:39;;;;;;;1.60;1.60;;;;;;;2.14;48.59;100904.66;104135;1280;141237;-77
2022/03/07 01:01:07;;;;;;;1.70;1.70;;;;;;;2.12;48.83;100902.33;104251;1279;109149;-79
2022/03/07 01:03:35;;;;;;;1.70;1.70;;;;;;;2.13;49.03;100895.70;104062;1281;141749;-77
2022/03/07 01:06:04;;;;;;;1.60;1.60;;;;;;;2.10;48.94;100895.49;104296;1280;109236;-77
2022/03/07 01:08:32;;;;;;;1.60;1.60;;;;;;;2.07;48.78;100889.99;104351;1280;95767;-78
2022/03/07 01:11:01;;;;;;;1.60;1.60;;;;;;;2.12;48.92;100886.05;104331;1279;140010;-79
2022/03/07 01:13:29;;;;;;;1.50;1.50;;;;;;;2.22;48.91;100890.41;104279;1279;110338;-77
2022/03/07 01:15:57;;;;;;;1.60;1.60;;;;;;;2.24;48.60;100889.93;104171;1279;139930;-77
2022/03/07 01:18:25;;;;;;;1.50;1.50;;;;;;;2.25;48.39;100888.36;104359;1279;108567;-78
2022/03/07 01:20:53;;;;;;;1.50;1.50;;;;;;;2.26;48.35;100888.20;104072;1281;95341;-76
2022/03/07 01:23:21;;;;;;;1.80;1.80;;;;;;;2.21;48.52;100890.05;104190;1282;139092;-77
2022/03/07 01:25:49;;;;;;;1.60;1.60;;;;;;;2.13;48.54;100889.75;104116;1281;108935;-79
2022/03/07 01:28:18;;;;;;;1.70;1.70;;;;;;;2.11;48.94;100887.27;104186;1280;139588;-77
2022/03/07 01:30:48;;;;;;;1.50;1.50;;;;;;;2.15;48.81;100884.35;104771;1280;109013;-78
2022/03/07 01:33:15;;;;;;;1.50;1.50;;;;;;;2.12;48.70;100882.38;104978;1279;138190;-79
2022/03/07 01:35:43;;;;;;;1.50;1.50;;;;;;;2.08;48.58;100878.11;104744;1280;95642;-79
2022/03/07 01:38:11;;;;;;;1.70;1.70;;;;;;;2.10;48.76;100873.59;104156;1281;108749;-75
2022/03/07 01:40:41;;;;;;;1.70;1.70;;;;;;;2.16;48.71;100861.95;104066;1281;139902;-76
2022/03/07 01:43:09;;;;;;;1.60;1.60;;;;;;;2.16;48.96;100855.82;104599;1281;109172;-78
2022/03/07 01:45:40;;;;;;;1.60;1.60;;;;;;;2.14;48.70;100854.73;104508;1281;140209;-87
2022/03/07 01:48:09;;;;;;;1.60;1.60;;;;;;;2.15;48.55;100855.97;104769;1279;95624;-77
2022/03/07 01:50:36;;;;;;;1.70;1.70;;;;;;;2.17;48.50;100856.89;104255;1279;110288;-77
2022/03/07 01:53:05;;;;;;;1.60;1.60;;;;;;;2.15;48.79;100858.42;104069;1280;138772;-77
2022/03/07 01:55:33;;;;;;;1.70;1.70;;;;;;;2.19;48.60;100853.05;104025;1281;109438;-77
2022/03/07 01:58:03;;;;;;;1.50;1.50;;;;;;;2.21;48.61;100849.23;103997;1281;138477;-77
2022/03/07 02:00:32;;;;;;;1.60;1.60;;;;;;;2.13;49.09;100852.78;104159;1281;95525;-79
2022/03/07 02:03:01;;;;;;;1.60;1.60;;;;;;;2.08;49.25;100857.27;104150;1280;140303;-77
2022/03/07 02:05:41;;;;;;;1.60;1.60;;;;;;;2.08;49.24;100856.77;104220;1281;99763;-76
2022/03/07 02:08:15;;;;;;;1.60;1.60;;;;;;;2.06;49.11;100859.86;104065;1281;109401;-77
2022/03/07 02:10:53;;;;;;;1.50;1.50;;;;;;;2.02;49.25;100862.77;103950;1281;140525;-78
2022/03/07 02:13:21;;;;;;;1.70;1.70;;;;;;;1.93;48.63;100859.13;104134;1281;94747;-77
2022/03/07 02:15:55;;;;;;;1.50;1.50;;;;;;;1.85;49.16;100856.02;103778;1281;140156;-77
2022/03/07 02:18:29;;;;;;;1.60;1.60;;;;;;;1.83;49.38;100849.51;104201;1280;99909;-78
2022/03/07 02:21:09;;;;;;;1.50;1.50;;;;;;;1.78;49.28;100847.15;104066;1280;140837;-78
2022/03/07 02:23:45;;;;;;;1.60;1.60;;;;;;;1.78;49.38;100846.98;104414;1279;95255;-77
2022/03/07 02:26:15;;;;;;;1.90;1.90;;;;;;;1.81;49.29;100849.11;104148;1280;95243;-78
2022/03/07 02:28:45;;;;;;;1.70;1.70;;;;;;;1.78;49.44;100849.23;104189;1281;138928;-77
2022/03/07 02:31:20;;;;;;;1.80;1.80;;;;;;;1.70;49.25;100846.33;104342;1280;99801;-77
2022/03/07 02:33:48;;;;;;;1.60;1.60;;;;;;;1.64;49.53;100847.80;104040;1281;139264;-77
2022/03/07 02:36:18;;;;;;;1.80;1.80;;;;;;;1.65;49.46;100838.02;104571;1281;95234;-77
2022/03/07 02:38:47;;;;;;;1.60;1.60;;;;;;;1.69;49.77;100836.83;104162;1279;95531;-78
2022/03/07 02:41:15;;;;;;;1.60;1.60;;;;;;;1.72;49.67;100835.15;104211;1280;139375;-77
2022/03/07 02:43:46;;;;;;;1.60;1.60;;;;;;;1.79;49.84;100831.05;103976;1282;100290;-78
2022/03/07 02:46:14;;;;;;;1.60;1.60;;;;;;;1.84;49.65;100827.65;103873;1281;139892;-77
2022/03/07 02:48:43;;;;;;;1.50;1.50;;;;;;;1.86;49.69;100821.89;104170;1281;95364;-76
2022/03/07 02:51:11;;;;;;;1.50;1.50;;;;;;;1.76;49.80;100828.91;103948;1281;139987;-77
2022/03/07 02:53:39;;;;;;;1.60;1.60;;;;;;;1.70;50.16;100825.66;103964;1282;110054;-77
2022/03/07 02:56:07;;;;;;;1.60;1.60;;;;;;;1.71;49.76;100820.78;104224;1281;98355;-78
2022/03/07 02:58:34;;;;;;;1.50;1.50;;;;;;;1.79;49.85;100820.57;104005;1281;140082;-77
2022/03/07 03:01:03;;;;;;;1.50;1.50;;;;;;;1.79;50.04;100818.28;104120;1281;95548;-77
2022/03/07 03:03:31;;;;;;;1.50;1.50;;;;;;;1.78;50.04;100819.15;104209;1280;138946;-77
2022/03/07 03:06:00;;;;;;;1.50;1.50;;;;;;;1.78;50.00;100815.81;104448;1279;109723;-78
2022/03/07 03:08:28;;;;;;;1.50;1.50;;;;;;;1.68;50.10;100817.91;104057;1281;97859;-78
2022/03/07 03:10:59;;;;;;;1.70;1.70;;;;;;;1.68;50.14;100819.33;104102;1281;140155;-77
2022/03/07 03:13:27;;;;;;;1.70;1.70;;;;;;;1.73;50.00;100815.20;104200;1281;95664;-77
2022/03/07 03:15:56;;;;;;;1.70;1.70;;;;;;;1.78;50.40;100820.37;104191;1279;140281;-79
2022/03/07 03:18:23;;;;;;;1.60;1.60;;;;;;;1.76;50.25;100820.70;104234;1279;109259;-77
2022/03/07 03:20:53;;;;;;;1.60;1.60;;;;;;;1.74;50.31;100823.80;104383;1279;99962;-78
2022/03/07 03:23:24;;;;;;;1.50;1.50;;;;;;;1.73;50.41;100822.38;104274;1280;140241;-77
2022/03/07 03:25:54;;;;;;;1.60;1.60;;;;;;;1.76;50.39;100830.14;103994;1280;95682;-78
2022/03/07 03:28:23;;;;;;;1.60;1.60;;;;;;;1.82;50.50;100828.31;104596;1281;139329;-78
2022/03/07 03:30:53;;;;;;;1.60;1.60;;;;;;;1.81;50.45;100826.90;104431;1279;108776;-77
2022/03/07 03:33:21;;;;;;;1.60;1.60;;;;;;;1.79;50.65;100830.70;104117;1279;140050;-78
2022/03/07 03:35:49;;;;;;;1.60;1.60;;;;;;;1.80;50.39;100833.02;104364;1279;109308;-79
2022/03/07 03:38:17;;;;;;;1.70;1.70;;;;;;;1.78;50.88;100831.04;104237;1280;95587;-78
2022/03/07 03:40:45;;;;;;;1.60;1.60;;;;;;;1.74;50.64;100826.07;104070;1279;139094;-77
2022/03/07 03:43:13;;;;;;;1.50;1.50;;;;;;;1.69;50.85;100821.96;104083;1281;107789;-78
2022/03/07 03:45:41;;;;;;;1.60;1.60;;;;;;;1.68;51.11;100819.84;103969;1281;139666;-77
2022/03/07 03:48:08;;;;;;;1.60;1.60;;;;;;;1.70;51.05;100817.79;104196;1280;108270;-78
2022/03/07 03:50:36;;;;;;;1.60;1.60;;;;;;;1.67;51.13;100819.65;104378;1280;95670;-78
2022/03/07 03:53:05;;;;;;;1.60;1.60;;;;;;;1.60;51.24;100818.67;104193;1279;139831;-78
2022/03/07 03:55:32;;;;;;;1.70;1.70;;;;;;;1.54;51.29;100818.92;104316;1280;109573;-78
2022/03/07 03:58:03;;;;;;;1.70;1.70;;;;;;;1.57;51.74;100815.27;104249;1279;139891;-77
2022/03/07 04:00:31;;;;;;;1.70;1.70;;;;;;;1.54;51.88;100813.84;104248;1280;107289;-77
2022/03/07 04:02:59;;;;;;;1.70;1.70;;;;;;;1.55;51.96;100812.80;104136;1279;141159;-77
2022/03/07 04:05:27;;;;;;;1.70;1.70;;;;;;;1.59;52.17;100812.33;104030;1281;95237;-77
2022/03/07 04:07:55;;;;;;;1.60;1.60;;;;;;;1.60;52.34;100805.02;104254;1281;110387;-79
2022/03/07 04:10:23;;;;;;;1.80;1.80;;;;;;;1.60;52.49;100802.55;104698;1280;141447;-77
2022/03/07 04:12:51;;;;;;;1.60;1.60;;;;;;;1.55;52.38;100810.02;104796;1279;109570;-78
2022/03/07 04:15:19;;;;;;;1.70;1.70;;;;;;;1.52;52.67;100806.28;104155;1280;145897;-77
2022/03/07 04:17:47;;;;;;;1.60;1.60;;;;;;;1.56;52.64;100807.05;104195;1279;95997;-78
2022/03/07 04:20:14;;;;;;;1.60;1.60;;;;;;;1.58;52.67;100808.65;104893;1280;110626;-78
2022/03/07 04:22:42;;;;;;;1.50;1.50;;;;;;;1.56;53.05;100804.60;104233;1279;140220;-78
2022/03/07 04:25:10;;;;;;;1.40;1.40;;;;;;;1.64;52.86;100806.67;104340;1279;108361;-78
2022/03/07 04:27:38;;;;;;;1.50;1.50;;;;;;;1.70;53.13;100808.34;104221;1279;140140;-78
2022/03/07 04:30:07;;;;;;;1.50;1.50;;;;;;;1.70;52.70;100806.05;104391;1279;95249;-78
2022/03/07 04:32:37;;;;;;;1.60;1.60;;;;;;;1.71;52.94;100804.48;104184;1281;110311;-78
2022/03/07 04:35:07;;;;;;;1.50;1.50;;;;;;;1.68;52.92;100809.69;104094;1281;139929;-78
2022/03/07 04:37:35;;;;;;;1.60;1.60;;;;;;;1.59;53.44;100803.59;104318;1281;109783;-78
2022/03/07 04:40:04;;;;;;;1.60;1.60;;;;;;;1.62;53.44;100802.60;104218;1279;139227;-78
2022/03/07 04:42:31;;;;;;;1.60;1.60;;;;;;;1.64;53.32;100807.70;104551;1279;95236;-77
2022/03/07 04:44:59;;;;;;;1.50;1.50;;;;;;;1.66;53.49;100804.05;104071;1281;140117;-77
2022/03/07 04:47:27;;;;;;;1.50;1.50;;;;;;;1.66;53.65;100801.79;104827;1280;99777;-78
2022/03/07 04:49:55;;;;;;;1.50;1.50;;;;;;;1.64;53.79;100805.80;104225;1279;109720;-77
2022/03/07 04:52:22;;;;;;;1.40;1.40;;;;;;;1.61;54.18;100809.94;103923;1281;140088;-78
2022/03/07 04:54:50;;;;;;;1.50;1.50;;;;;;;1.57;54.38;100812.48;104161;1280;95622;-77
2022/03/07 04:57:18;;;;;;;1.60;1.60;;;;;;;1.58;54.25;100816.35;103856;1281;139672;-77
2022/03/07 04:59:46;;;;;;;1.70;1.70;;;;;;;1.59;54.24;100811.14;104395;1280;100606;-78
2022/03/07 05:02:14;;;;;;;1.50;1.50;;;;;;;1.62;54.14;100808.02;104506;1281;110163;-78
2022/03/07 05:04:42;;;;;;;1.60;1.60;;;;;;;1.61;54.55;100805.39;104594;1279;140260;-80
2022/03/07 05:07:10;;;;;;;1.60;1.60;;;;;;;1.61;54.35;100802.59;105113;1281;95227;-78
2022/03/07 05:09:37;;;;;;;1.70;1.70;;;;;;;1.55;54.72;100798.64;104821;1281;139623;-78
2022/03/07 05:12:06;;;;;;;1.60;1.60;;;;;;;1.60;54.56;100800.29;104427;1281;98735;-79
2022/03/07 05:14:33;;;;;;;1.70;1.70;;;;;;;1.61;54.51;100799.27;105050;1281;109334;-78
2022/03/07 05:17:01;;;;;;;1.60;1.60;;;;;;;1.61;54.80;100801.01;104791;1281;140848;-78
2022/03/07 05:19:29;;;;;;;1.40;1.40;;;;;;;1.71;54.31;100799.08;104329;1281;95698;-78
2022/03/07 05:21:57;;;;;;;1.40;1.40;;;;;;;1.71;54.54;100796.10;104482;1280;139712;-79
2022/03/07 05:24:25;;;;;;;1.50;1.50;;;;;;;1.65;54.76;100799.33;104465;1281;99846;-78
2022/03/07 05:26:53;;;;;;;1.50;1.50;;;;;;;1.67;54.44;100800.95;104385;1281;109567;-79
2022/03/07 05:29:21;;;;;;;1.60;1.60;;;;;;;1.67;54.80;100793.92;104394;1280;139048;-79
2022/03/07 05:31:49;;;;;;;1.60;1.60;;;;;;;1.65;54.94;100791.63;104528;1281;95212;-79
2022/03/07 05:34:17;;;;;;;1.50;1.50;;;;;;;1.55;54.99;100788.30;104885;1281;139720;-78
2022/03/07 05:36:45;;;;;;;1.40;1.40;;;;;;;1.45;55.52;100787.09;105147;1281;99335;-77
2022/03/07 05:39:13;;;;;;;1.50;1.50;;;;;;;1.41;55.46;100787.20;104528;1280;141731;-78
2022/03/07 05:41:40;;;;;;;1.60;1.60;;;;;;;1.37;55.80;100785.37;104591;1281;95254;-78
2022/03/07 05:44:08;;;;;;;1.90;1.90;;;;;;;1.39;56.07;100787.50;104582;1281;95123;-78
2022/03/07 05:46:36;;;;;;;1.60;1.60;;;;;;;1.42;55.96;100788.42;104384;1281;140794;-78
2022/03/07 05:49:04;;;;;;;1.60;1.60;;;;;;;1.49;56.10;100792.94;104642;1281;99859;-77
2022/03/07 05:51:32;;;;;;;1.50;1.50;;;;;;;1.55;56.05;100791.45;104523;1281;138969;-79
2022/03/07 05:54:00;;;;;;;1.50;1.50;;;;;;;1.60;55.70;100791.36;104347;1281;95282;-78
2022/03/07 05:56:28;;;;;;;1.60;1.60;;;;;;;1.59;55.64;100795.55;105011;1281;95758;-79
2022/03/07 05:58:55;;;;;;;1.60;1.60;;;;;;;1.62;56.22;100794.20;104774;1281;139369;-78
2022/03/07 06:01:23;;;;;;;1.60;1.60;;;;;;;1.67;56.33;100790.61;104910;1281;99864;-81
2022/03/07 06:03:51;;;;;;;1.50;1.50;;;;;;;1.69;56.27;100791.86;104833;1281;140180;-79
2022/03/07 06:06:19;;;;;;;1.50;1.50;;;;;;;1.67;56.37;100794.11;105313;1281;95009;-79
2022/03/07 06:08:46;;;;;;;1.50;1.50;;;;;;;1.66;56.52;100794.98;105176;1281;95122;-81
2022/03/07 06:11:14;;;;;;;1.50;1.50;;;;;;;1.66;56.98;100792.86;104234;1281;140783;-84
2022/03/07 06:13:42;;;;;;;1.70;1.70;;;;;;;1.70;56.66;100788.90;104315;1281;99854;-80
2022/03/07 06:16:11;;;;;;;1.50;1.50;;;;;;;1.70;57.00;100792.59;104068;1281;140278;-76
2022/03/07 06:18:39;;;;;;;1.50;1.50;;;;;;;1.73;57.07;100791.92;104390;1281;96529;-81
2022/03/07 06:21:08;;;;;;;1.60;1.60;;;;;;;1.73;57.07;100788.08;104935;1281;141040;-78
2022/03/07 06:23:36;;;;;;;1.50;1.50;;;;;;;1.81;56.72;100788.90;104576;1281;110475;-78
2022/03/07 06:26:05;;;;;;;1.50;1.50;;;;;;;1.92;56.89;100791.17;104892;1281;99996;-78
2022/03/07 06:28:33;;;;;;;1.60;1.60;;;;;;;1.95;56.57;100789.64;104767;1281;139965;-81
2022/03/07 06:31:01;;;;;;;1.60;1.60;;;;;;;1.83;56.92;100789.11;104450;1281;95157;-78
2022/03/07 06:33:29;;;;;;;1.50;1.50;;;;;;;1.94;56.75;100789.63;104353;1281;139053;-78
2022/03/07 06:35:57;;;;;;;1.50;1.50;;;;;;;1.98;56.50;100784.77;104555;1281;109101;-78
2022/03/07 06:38:25;;;;;;;1.90;1.90;;;;;;;1.93;57.26;100787.51;104434;1281;99581;-78
2022/03/07 06:40:52;;;;;;;1.60;1.60;;;;;;;1.87;57.15;100792.67;104456;1281;139185;-82
2022/03/07 06:43:20;;;;;;;1.50;1.50;;;;;;;1.94;57.15;100795.77;104401;1281;96635;-78
2022/03/07 06:45:48;;;;;;;1.50;1.50;;;;;;;2.04;57.59;100795.73;104276;1281;140059;-78
2022/03/07 06:48:16;;;;;;;1.40;1.40;;;;;;;2.09;57.46;100799.84;104328;1281;108823;-79
2022/03/07 06:50:44;;;;;;;1.40;1.40;;;;;;;2.14;57.53;100798.33;104468;1281;98660;-77
2022/03/07 06:53:11;;;;;;;1.40;1.40;;;;;;;2.13;57.37;100801.66;104483;1281;138461;-81
2022/03/07 06:55:39;;;;;;;1.40;1.40;;;;;;;2.15;57.50;100797.48;105086;1281;95211;-79
2022/03/07 06:58:08;;;;;;;1.40;1.40;;;;;;;2.20;57.53;100802.27;104298;1281;138963;-78
2022/03/07 07:00:36;;;;;;;1.30;1.30;;;;;;;2.30;57.28;100804.67;104654;1281;110695;-78
2022/03/07 07:03:05;;;;;;;1.30;1.30;;;;;;;2.41;57.46;100806.95;104461;1281;139229;-79
2022/03/07 07:05:33;;;;;;;1.30;1.30;;;;;;;2.45;57.10;100810.48;105144;1281;108187;-80
2022/03/07 07:08:01;;;;;;;1.30;1.30;;;;;;;2.45;57.25;100818.39;105095;1281;95913;-78
2022/03/07 07:10:29;;;;;;;1.40;1.40;;;;;;;2.45;57.24;100815.58;104883;1281;138895;-79
2022/03/07 07:12:56;;;;;;;1.50;1.50;;;;;;;2.50;57.16;100817.58;105041;1281;110567;-77
2022/03/07 07:15:24;;;;;;;1.20;1.20;;;;;;;2.59;57.31;100814.72;104823;1280;140027;-79
2022/03/07 07:17:52;;;;;;;1.20;1.20;;;;;;;2.68;56.70;100816.23;105104;1281;108292;-78
2022/03/07 07:20:20;;;;;;;1.30;1.30;;;;;;;2.65;56.93;100815.48;105008;1281;95848;-80
2022/03/07 07:22:48;;;;;;;1.20;1.20;;;;;;;2.71;56.58;100816.79;105039;1281;139575;-79
2022/03/07 07:25:15;;;;;;;1.30;1.30;;;;;;;2.71;56.98;100814.70;105158;1281;109246;-77
2022/03/07 07:27:43;;;;;;;1.30;1.30;;;;;;;2.72;56.85;100816.46;104311;1281;141440;-78
2022/03/07 07:30:11;;;;;;;1.50;1.50;;;;;;;2.85;56.86;100810.64;104447;1280;109328;-78
2022/03/07 07:32:39;;;;;;;1.20;1.20;;;;;;;3.01;56.68;100810.14;104562;1281;95830;-79
2022/03/07 07:35:09;;;;;;;1.30;1.30;;;;;;;3.05;56.03;100810.02;104989;1281;139506;-78
2022/03/07 07:37:37;;;;;;;1.20;1.20;;;;;;;3.10;56.31;100811.65;104902;1281;110100;-78
2022/03/07 07:40:07;;;;;;;1.20;1.20;;;;;;;3.10;56.24;100811.28;104942;1281;138797;-78
2022/03/07 07:42:35;;;;;;;1.30;1.30;;;;;;;3.12;56.16;100803.77;104556;1280;109566;-78
2022/03/07 07:45:08;;;;;;;1.30;1.30;;;;;;;3.12;56.12;100803.40;104444;1281;140478;-78
2022/03/07 07:47:36;;;;;;;1.20;1.20;;;;;;;3.16;56.02;100806.97;105115;1281;95217;-79
2022/03/07 07:50:05;;;;;;;1.10;1.10;;;;;;;3.23;56.29;100808.96;105191;1281;109290;-78
2022/03/07 07:52:32;;;;;;;1.20;1.20;;;;;;;3.31;56.01;100810.27;104522;1281;138880;-78
2022/03/07 07:55:18;;;;;;;1.10;1.10;;;;;;;3.41;55.65;100811.95;104845;1280;109133;-78
2022/03/07 07:57:46;;;;;;;1.20;1.20;;;;;;;3.43;55.66;100812.33;104354;1281;140071;-77
2022/03/07 08:00:19;;;;;;;1.30;1.30;;;;;;;3.43;55.41;100809.70;104599;1281;95142;-78
2022/03/07 08:02:48;;;;;;;1.40;1.40;;;;;;;3.30;55.84;100811.85;104447;1281;110248;-78
2022/03/07 08:05:20;;;;;;;1.20;1.20;;;;;;;3.34;56.08;100808.03;104996;1280;138819;-80
2022/03/07 08:07:47;;;;;;;1.10;1.10;;;;;;;3.44;55.78;100808.45;105000;1281;108182;-79
2022/03/07 08:10:16;;;;;;;1.10;1.10;;;;;;;3.46;56.01;100805.52;104915;1281;141828;-77
2022/03/07 08:12:45;;;;;;;1.10;1.10;;;;;;;3.50;55.39;100802.02;104723;1281;95688;-78
2022/03/07 08:15:18;;;;;;;1.10;1.10;;;;;;;3.61;55.27;100802.31;104210;1281;139056;-78
2022/03/07 08:17:52;;;;;;;1.10;1.10;;;;;;;3.69;55.16;100806.75;104618;1281;100481;-80
2022/03/07 08:20:21;;;;;;;1.10;1.10;;;;;;;3.79;54.76;100802.98;105954;1279;108945;-78
2022/03/07 08:22:49;;;;;;;1.20;1.20;;;;;;;3.86;54.72;100805.33;104708;1281;138853;-78
2022/03/07 08:25:17;;;;;;;1.10;1.10;;;;;;;3.94;54.31;100801.51;104818;1281;96068;-78
2022/03/07 08:27:45;;;;;;;1.20;1.20;;;;;;;3.97;54.12;100796.62;104852;1281;139189;-79
2022/03/07 08:30:15;;;;;;;1.10;1.10;;;;;;;4.01;54.02;100795.41;105143;1281;99828;-78
2022/03/07 08:32:43;;;;;;;1.20;1.20;;;;;;;4.02;53.98;100798.05;104615;1280;109411;-79
2022/03/07 08:35:11;;;;;;;1.20;1.20;;;;;;;3.92;54.15;100789.38;104459;1281;138947;-79
2022/03/07 08:37:43;;;;;;;1.10;1.10;;;;;;;3.90;54.25;100790.41;104997;1281;95660;-80
2022/03/07 08:40:12;;;;;;;1.10;1.10;;;;;;;3.74;54.67;100790.11;104831;1280;139223;-78
2022/03/07 08:42:41;;;;;;;1.20;1.20;;;;;;;3.75;54.77;100793.98;105121;1280;98987;-79
2022/03/07 08:45:10;;;;;;;1.10;1.10;;;;;;;3.94;54.65;100790.63;104912;1280;138722;-78
2022/03/07 08:47:39;;;;;;;1.10;1.10;;;;;;;4.12;54.18;100791.10;104927;1280;95571;-78
2022/03/07 08:50:09;;;;;;;1.10;1.10;;;;;;;4.28;53.73;100791.02;104480;1281;95307;-78
2022/03/07 08:52:38;;;;;;;1.10;1.10;;;;;;;4.52;53.35;100787.45;104426;1281;139713;-78
2022/03/07 08:55:07;;;;;;;1.00;1.00;;;;;;;4.71;52.86;100786.66;104568;1281;99111;-79
2022/03/07 08:57:36;;;;;;;1.10;1.10;;;;;;;4.88;52.66;100788.13;104425;1281;140684;-78
2022/03/07 09:00:10;;;;;;;1.00;1.00;;;;;;;5.14;52.14;100785.73;105030;1280;95682;-78
2022/03/07 09:02:46;;;;;;;1.10;1.10;;;;;;;5.51;51.40;100785.60;104791;1281;97555;-78
2022/03/07 09:05:15;;;;;;;1.00;1.00;;;;;;;5.90;50.77;100783.15;104539;1279;140577;-78
2022/03/07 09:07:43;;;;;;;0.90;0.90;;;;;;;6.01;50.30;100776.98;104570;1280;98866;-79
2022/03/07 09:10:11;;;;;;;0.90;0.90;;;;;;;6.05;49.54;100771.33;104848;1281;138122;-77
2022/03/07 09:12:39;;;;;;;1.00;1.00;;;;;;;6.01;49.79;100774.70;104304;1281;95223;-77
2022/03/07 09:15:07;;;;;;;0.90;0.90;;;;;;;6.00;49.58;100769.06;104172;1280;140329;-78
2022/03/07 09:17:35;;;;;;;0.90;0.90;;;;;;;5.99;49.37;100764.13;104340;1280;110178;-78
2022/03/07 09:20:05;;;;;;;0.90;0.90;;;;;;;6.00;49.31;100762.53;104566;1281;99893;-79
2022/03/07 09:22:33;;;;;;;0.90;0.90;;;;;;;5.93;49.27;100764.98;104206;1281;139639;-77
2022/03/07 09:25:03;;;;;;;0.90;0.90;;;;;;;5.85;49.01;100765.69;104235;1281;95283;-79
2022/03/07 09:27:31;;;;;;;0.90;0.90;;;;;;;5.77;49.43;100767.11;104706;1280;140600;-80
2022/03/07 09:29:59;;;;;;;0.90;0.90;;;;;;;5.66;49.43;100770.10;104820;1281;109481;-79
2022/03/07 09:32:27;;;;;;;1.00;1.00;;;;;;;5.53;49.45;100767.11;104771;1282;100007;-80
2022/03/07 09:34:54;;;;;;;0.90;0.90;;;;;;;5.50;49.64;100767.12;104847;1280;138822;-79
2022/03/07 09:37:22;;;;;;;0.90;0.90;;;;;;;5.53;49.91;100766.05;104904;1279;95239;-78
2022/03/07 09:39:50;;;;;;;0.90;0.90;;;;;;;5.49;49.72;100764.83;104384;1281;139575;-79
2022/03/07 09:42:18;;;;;;;0.90;0.90;;;;;;;5.46;49.74;100766.58;105049;1281;110339;-83
2022/03/07 09:44:45;;;;;;;0.90;0.90;;;;;;;5.52;49.93;100767.29;105045;1281;98431;-78
2022/03/07 09:47:14;;;;;;;0.90;0.90;;;;;;;5.61;49.63;100763.08;104347;1279;139181;-78
2022/03/07 09:49:42;;;;;;;0.90;0.90;;;;;;;5.53;49.57;100759.36;104415;1281;95280;-78
2022/03/07 09:52:11;;;;;;;0.90;0.90;;;;;;;5.52;49.83;100756.38;104347;1280;139558;-80
2022/03/07 09:54:38;;;;;;;0.90;0.90;;;;;;;5.48;49.68;100759.02;104935;1279;110232;-80
2022/03/07 09:57:06;;;;;;;0.90;0.90;;;;;;;5.49;49.84;100759.19;105021;1281;140354;-78
2022/03/07 09:59:35;;;;;;;0.90;0.90;;;;;;;5.46;50.13;100759.90;104851;1279;109576;-78
2022/03/07 10:02:05;;;;;;;0.80;0.80;;;;;;;5.51;50.36;100761.83;104450;1279;95977;-78
2022/03/07 10:04:39;;;;;;;0.90;0.90;;;;;;;5.55;50.18;100761.48;104136;1280;140350;-78
2022/03/07 10:07:07;;;;;;;0.90;0.90;;;;;;;5.47;50.03;100763.94;104573;1281;110183;-79
2022/03/07 10:09:35;;;;;;;1.00;1.00;;;;;;;5.46;49.99;100762.70;104530;1281;139867;-77
2022/03/07 10:12:03;;;;;;;0.90;0.90;;;;;;;5.39;50.09;100761.48;104372;1281;109368;-77
2022/03/07 10:14:44;;;;;;;0.90;0.90;;;;;;;5.48;50.36;100763.06;104416;1281;96129;-79
2022/03/07 10:17:19;;;;;;;0.90;0.90;;;;;;;5.51;50.15;100764.47;104117;1281;139093;-78
2022/03/07 10:19:47;;;;;;;0.90;0.90;;;;;;;5.60;50.25;100765.19;105028;1280;109815;-77
2022/03/07 10:22:24;;;;;;;0.90;0.90;;;;;;;5.85;49.86;100765.17;104702;1281;141462;-79
2022/03/07 10:25:07;;;;;;;0.90;0.90;;;;;;;6.43;49.31;100762.94;105039;1279;109386;-79
2022/03/07 10:27:38;;;;;;;0.90;0.90;;;;;;;7.27;47.12;100757.41;104760;1279;138699;-78
2022/03/07 10:30:13;;;;;;;0.90;0.90;;;;;;;8.21;45.89;100749.65;104883;1281;95701;-77
2022/03/07 10:32:43;;;;;;;0.50;0.50;;;;;;;10.22;42.73;100744.52;105097;1279;109791;-78
2022/03/07 10:35:22;;;;;;;0.50;0.50;;;;;;;11.24;40.25;100735.66;104844;1280;140428;-77
2022/03/07 10:37:50;;;;;;;0.50;0.40;;;;;;;11.52;38.71;100735.91;104437;1279;109738;-78
2022/03/07 10:40:20;;;;;;;0.40;0.30;;;;;;;11.67;38.21;100733.40;104617;1280;138567;-78
2022/03/07 10:42:49;;;;;;;0.40;0.40;;;;;;;11.32;38.31;100737.42;104915;1280;94875;-79
2022/03/07 10:45:17;;;;;;;0.50;0.40;;;;;;;10.84;39.16;100731.09;104490;1280;138474;-78
2022/03/07 10:47:50;;;;;;;0.50;0.40;;;;;;;10.42;39.63;100727.34;104722;1280;98210;-80
2022/03/07 10:50:21;;;;;;;0.50;0.50;;;;;;;10.01;39.82;100731.13;105419;1281;106440;-79
2022/03/07 10:52:51;;;;;;;0.50;0.40;;;;;;;10.85;39.03;100719.67;104622;1279;139645;-79
2022/03/07 10:55:24;;;;;;;0.40;0.40;;;;;;;11.35;38.52;100721.55;104877;1279;95162;-79
2022/03/07 10:57:52;;;;;;;0.40;0.40;;;;;;;10.96;38.62;100726.38;104583;1281;140202;-77
2022/03/07 11:00:22;;;;;;;0.50;0.40;;;;;;;10.54;38.92;100726.05;104821;1279;99922;-77
2022/03/07 11:02:50;;;;;;;0.40;0.40;;;;;;;10.11;39.59;100725.80;104595;1279;109302;-77
2022/03/07 11:05:18;;;;;;;0.50;0.50;;;;;;;9.80;40.61;100727.44;105585;1279;140835;-79
2022/03/07 11:07:49;;;;;;;0.40;0.40;;;;;;;9.77;41.08;100725.54;105772;1279;95538;-79
2022/03/07 11:10:18;;;;;;;0.50;0.50;;;;;;;9.55;41.08;100728.20;105570;1279;137327;-79
2022/03/07 11:12:46;;;;;;;0.50;0.50;;;;;;;9.32;41.39;100726.45;104478;1281;99864;-80
2022/03/07 11:15:18;;;;;;;0.50;0.50;;;;;;;9.07;42.00;100723.47;104081;1280;138045;-80
2022/03/07 11:17:47;;;;;;;0.60;0.60;;;;;;;8.86;42.28;100726.43;104258;1280;95724;-77
2022/03/07 11:20:17;;;;;;;0.50;0.50;;;;;;;8.58;43.01;100721.14;104519;1279;95224;-79
2022/03/07 11:22:44;;;;;;;0.60;0.60;;;;;;;8.27;43.31;100714.23;104340;1280;139058;-79
2022/03/07 11:25:15;;;;;;;0.60;0.60;;;;;;;8.08;44.18;100709.85;104988;1280;99970;-77
2022/03/07 11:27:43;;;;;;;0.60;0.60;;;;;;;7.94;44.74;100706.82;104166;1280;141557;-76